createdAt,value
2022-09-17T00:00:43.657Z,57.28
2022-09-17T00:01:44.696Z,53.25
2022-09-17T00:02:43.706Z,51.13
2022-09-17T00:03:43.636Z,54.03
2022-09-17T00:04:43.652Z,54.60
2022-09-17T00:05:43.615Z,53.37
2022-09-17T00:06:43.616Z,56.76
2022-09-17T00:07:43.612Z,50.48
2022-09-17T00:08:43.612Z,56.51
2022-09-17T00:09:43.603Z,53.56
2022-09-17T00:10:43.591Z,52.53
2022-09-17T00:11:43.586Z,51.15
2022-09-17T00:12:43.676Z,49.63
2022-09-17T00:13:43.577Z,52.31
2022-09-17T00:14:43.552Z,53.74
2022-09-17T00:15:43.645Z,51.45
2022-09-17T00:16:43.551Z,54.02
2022-09-17T00:17:43.540Z,52.99
2022-09-17T00:18:43.536Z,53.54
2022-09-17T00:19:43.535Z,49.75
2022-09-17T00:20:43.542Z,55.35
2022-09-17T00:21:43.523Z,53.45
2022-09-17T00:22:43.518Z,55.55
2022-09-17T00:23:43.507Z,52.59
2022-09-17T00:24:43.519Z,55.24
2022-09-17T00:25:43.507Z,56.00
2022-09-17T00:26:43.495Z,55.71
2022-09-17T00:27:43.480Z,51.27
2022-09-17T00:28:43.570Z,56.35
2022-09-17T00:29:43.479Z,50.93
2022-09-17T00:30:43.457Z,49.33
2022-09-17T00:31:43.523Z,48.60
2022-09-17T00:32:43.451Z,49.76
2022-09-17T00:33:43.449Z,56.21
2022-09-17T00:34:43.444Z,54.03
2022-09-17T00:35:43.451Z,52.04
2022-09-17T00:36:43.428Z,54.28
2022-09-17T00:37:43.418Z,52.45
2022-09-17T00:38:43.425Z,54.23
2022-09-17T00:39:43.421Z,49.90
2022-09-17T00:40:43.435Z,52.09
2022-09-17T00:41:43.402Z,53.28
2022-09-17T00:42:43.391Z,52.78
2022-09-17T00:43:43.391Z,56.32
2022-09-17T00:44:43.471Z,51.91
2022-09-17T00:45:43.367Z,50.91
2022-09-17T00:46:43.452Z,54.66
2022-09-17T00:47:43.360Z,53.09
2022-09-17T00:48:43.395Z,50.89
2022-09-17T00:49:43.346Z,49.67
2022-09-17T00:50:43.336Z,47.73
2022-09-17T00:51:43.347Z,53.72
2022-09-17T00:52:43.322Z,51.04
2022-09-17T00:53:43.315Z,56.63
2022-09-17T00:54:43.307Z,53.79
2022-09-17T00:55:43.299Z,54.27
2022-09-17T00:56:43.295Z,51.20
2022-09-17T00:57:43.283Z,49.55
2022-09-17T00:58:44.295Z,53.77
2022-09-17T00:59:43.271Z,52.70
2022-09-17T01:00:43.442Z,53.26
2022-09-17T01:01:43.311Z,52.36
2022-09-17T01:02:43.274Z,52.19
2022-09-17T01:03:43.242Z,52.49
2022-09-17T01:04:43.247Z,48.12
2022-09-17T01:05:43.235Z,49.10
2022-09-17T01:06:43.226Z,50.13
2022-09-17T01:07:43.234Z,52.30
2022-09-17T01:08:43.215Z,51.96
2022-09-17T01:09:43.215Z,56.28
2022-09-17T01:10:43.193Z,54.82
2022-09-17T01:11:43.194Z,53.98
2022-09-17T01:12:43.183Z,52.57
2022-09-17T01:13:44.203Z,50.17
2022-09-17T01:14:43.166Z,50.92
2022-09-17T01:15:43.176Z,51.52
2022-09-17T01:16:43.255Z,56.10
2022-09-17T01:17:43.150Z,53.98
2022-09-17T01:18:43.159Z,52.26
2022-09-17T01:19:43.126Z,53.91
2022-09-17T01:20:43.131Z,50.77
2022-09-17T01:21:43.119Z,52.83
2022-09-17T01:22:43.104Z,52.23
2022-09-17T01:23:43.102Z,51.34
2022-09-17T01:24:43.116Z,56.28
2022-09-17T01:25:43.098Z,54.83
2022-09-17T01:26:43.086Z,54.32
2022-09-17T01:27:45.835Z,54.82
2022-09-17T01:28:44.086Z,52.29
2022-09-17T01:29:43.062Z,49.30
2022-09-17T01:30:43.066Z,52.45
2022-09-17T01:31:43.102Z,51.53
2022-09-17T01:32:43.141Z,51.83
2022-09-17T01:33:43.062Z,53.72
2022-09-17T01:34:43.026Z,53.60
2022-09-17T01:35:43.027Z,49.68
2022-09-17T01:36:43.018Z,49.44
2022-09-17T01:37:43.019Z,54.30
2022-09-17T01:38:43.011Z,53.65
2022-09-17T01:39:43.034Z,52.63
2022-09-17T01:40:42.995Z,55.60
2022-09-17T01:41:42.998Z,54.36
2022-09-17T01:42:42.988Z,54.57
2022-09-17T01:43:42.986Z,53.26
2022-09-17T01:44:42.976Z,50.35
2022-09-17T01:45:42.967Z,53.24
2022-09-17T01:46:43.021Z,49.38
2022-09-17T01:47:42.954Z,53.51
2022-09-17T01:48:43.056Z,50.06
2022-09-17T01:49:42.946Z,51.12
2022-09-17T01:50:42.926Z,53.09
2022-09-17T01:51:42.936Z,52.07
2022-09-17T01:52:42.919Z,52.66
2022-09-17T01:53:42.907Z,54.71
2022-09-17T01:54:42.914Z,57.32
2022-09-17T01:55:42.906Z,56.38
2022-09-17T01:56:42.884Z,49.48
2022-09-17T01:57:42.882Z,54.12
2022-09-17T01:58:42.890Z,58.62
2022-09-17T01:59:42.886Z,56.80
2022-09-17T02:00:42.930Z,54.41
2022-09-17T02:01:42.894Z,49.26
2022-09-17T02:02:42.858Z,55.68
2022-09-17T02:03:42.850Z,53.82
2022-09-17T02:04:42.969Z,53.88
2022-09-17T02:05:42.835Z,49.74
2022-09-17T02:06:42.827Z,47.78
2022-09-17T02:07:42.826Z,48.67
2022-09-17T02:08:42.821Z,54.38
2022-09-17T02:09:42.814Z,51.98
2022-09-17T02:10:42.789Z,54.62
2022-09-17T02:11:42.799Z,55.42
2022-09-17T02:12:42.778Z,51.97
2022-09-17T02:13:42.804Z,50.53
2022-09-17T02:14:42.774Z,47.17
2022-09-17T02:15:42.810Z,52.53
2022-09-17T02:16:42.769Z,53.19
2022-09-17T02:17:42.745Z,51.81
2022-09-17T02:18:42.746Z,51.94
2022-09-17T02:19:42.746Z,50.82
2022-09-17T02:20:42.846Z,53.68
2022-09-17T02:21:42.737Z,54.31
2022-09-17T02:22:42.738Z,47.18
2022-09-17T02:23:42.718Z,53.76
2022-09-17T02:24:42.706Z,52.18
2022-09-17T02:25:42.701Z,50.60
2022-09-17T02:26:42.702Z,54.32
2022-09-17T02:27:42.694Z,56.42
2022-09-17T02:28:42.701Z,52.30
2022-09-17T02:29:42.678Z,54.20
2022-09-17T02:30:42.669Z,54.74
2022-09-17T02:31:42.756Z,54.64
2022-09-17T02:32:42.658Z,52.70
2022-09-17T02:33:42.642Z,55.41
2022-09-17T02:34:42.642Z,51.64
2022-09-17T02:35:42.642Z,51.30
2022-09-17T02:36:42.753Z,53.57
2022-09-17T02:37:42.644Z,53.96
2022-09-17T02:38:42.620Z,49.74
2022-09-17T02:39:42.608Z,50.88
2022-09-17T02:40:42.598Z,52.41
2022-09-17T02:41:42.590Z,53.25
2022-09-17T02:42:42.613Z,54.53
2022-09-17T02:43:42.581Z,51.84
2022-09-17T02:44:42.574Z,51.06
2022-09-17T02:45:42.563Z,49.57
2022-09-17T02:46:42.593Z,54.43
2022-09-17T02:47:42.573Z,53.74
2022-09-17T02:48:42.544Z,55.72
2022-09-17T02:49:42.525Z,57.73
2022-09-17T02:50:42.534Z,58.65
2022-09-17T02:51:42.539Z,54.45
2022-09-17T02:52:42.618Z,56.62
2022-09-17T02:53:42.509Z,55.31
2022-09-17T02:54:42.505Z,55.75
2022-09-17T02:55:42.491Z,52.21
2022-09-17T02:56:42.488Z,51.79
2022-09-17T02:57:42.488Z,56.93
2022-09-17T02:58:42.484Z,51.70
2022-09-17T02:59:42.485Z,59.44
2022-09-17T03:00:42.526Z,53.86
2022-09-17T03:01:42.491Z,51.70
2022-09-17T03:02:42.468Z,56.17
2022-09-17T03:03:42.444Z,55.48
2022-09-17T03:04:42.427Z,57.10
2022-09-17T03:05:42.438Z,54.93
2022-09-17T03:06:42.424Z,53.57
2022-09-17T03:07:42.432Z,51.50
2022-09-17T03:08:42.505Z,55.13
2022-09-17T03:09:42.408Z,56.17
2022-09-17T03:10:42.379Z,54.60
2022-09-17T03:11:42.390Z,54.94
2022-09-17T03:12:42.408Z,56.26
2022-09-17T03:13:42.366Z,52.50
2022-09-17T03:14:42.380Z,55.86
2022-09-17T03:15:42.376Z,58.11
2022-09-17T03:16:42.352Z,55.59
2022-09-17T03:17:42.351Z,54.00
2022-09-17T03:18:42.364Z,54.75
2022-09-17T03:19:42.322Z,54.68
2022-09-17T03:20:43.335Z,54.35
2022-09-17T03:21:42.328Z,52.68
2022-09-17T03:22:42.319Z,52.34
2022-09-17T03:23:42.328Z,53.78
2022-09-17T03:24:42.402Z,51.59
2022-09-17T03:25:42.304Z,55.54
2022-09-17T03:26:42.291Z,56.19
2022-09-17T03:27:42.280Z,50.62
2022-09-17T03:28:42.293Z,55.14
2022-09-17T03:29:42.276Z,55.47
2022-09-17T03:30:42.268Z,57.15
2022-09-17T03:31:42.336Z,55.88
2022-09-17T03:32:42.257Z,57.47
2022-09-17T03:33:42.262Z,54.63
2022-09-17T03:34:42.244Z,57.37
2022-09-17T03:35:42.256Z,57.23
2022-09-17T03:36:42.231Z,54.65
2022-09-17T03:37:42.207Z,52.57
2022-09-17T03:38:42.213Z,54.88
2022-09-17T03:39:42.217Z,58.11
2022-09-17T03:40:42.291Z,56.17
2022-09-17T03:41:42.191Z,56.49
2022-09-17T03:42:42.179Z,54.15
2022-09-17T03:43:42.192Z,55.10
2022-09-17T03:44:45.271Z,55.11
2022-09-17T03:45:43.159Z,58.38
2022-09-17T03:46:42.240Z,59.39
2022-09-17T03:47:42.146Z,55.68
2022-09-17T03:48:42.139Z,56.43
2022-09-17T03:49:42.162Z,55.47
2022-09-17T03:50:42.124Z,55.42
2022-09-17T03:51:43.133Z,55.48
2022-09-17T03:52:42.107Z,55.97
2022-09-17T03:53:42.113Z,57.64
2022-09-17T03:54:42.100Z,58.28
2022-09-17T03:55:42.111Z,56.82
2022-09-17T03:56:42.258Z,59.48
2022-09-17T03:57:42.075Z,57.04
2022-09-17T03:58:42.073Z,55.80
2022-09-17T03:59:42.071Z,56.10
2022-09-17T04:00:42.074Z,57.88
2022-09-17T04:01:42.153Z,57.40
2022-09-17T04:02:42.083Z,54.89
2022-09-17T04:03:42.043Z,55.56
2022-09-17T04:04:42.033Z,58.52
2022-09-17T04:05:42.616Z,55.99
2022-09-17T04:06:42.024Z,58.03
2022-09-17T04:07:42.012Z,58.47
2022-09-17T04:08:42.008Z,58.00
2022-09-17T04:09:42.004Z,56.15
2022-09-17T04:10:42.003Z,54.82
2022-09-17T04:11:41.991Z,55.41
2022-09-17T04:12:42.077Z,53.69
2022-09-17T04:13:41.974Z,56.36
2022-09-17T04:14:41.972Z,58.81
2022-09-17T04:15:41.989Z,57.03
2022-09-17T04:16:41.972Z,56.67
2022-09-17T04:17:41.944Z,56.97
2022-09-17T04:18:41.939Z,58.24
2022-09-17T04:19:41.936Z,58.19
2022-09-17T04:20:41.927Z,58.24
2022-09-17T04:21:41.935Z,56.22
2022-09-17T04:22:41.920Z,55.87
2022-09-17T04:23:41.908Z,55.94
2022-09-17T04:24:41.901Z,54.86
2022-09-17T04:25:41.890Z,58.44
2022-09-17T04:26:41.895Z,57.21
2022-09-17T04:27:41.892Z,54.00
2022-09-17T04:28:41.973Z,59.00
2022-09-17T04:29:41.871Z,58.32
2022-09-17T04:30:41.860Z,58.30
2022-09-17T04:31:41.932Z,57.65
2022-09-17T04:32:41.851Z,56.83
2022-09-17T04:33:41.843Z,58.50
2022-09-17T04:34:41.835Z,60.06
2022-09-17T04:35:41.823Z,58.65
2022-09-17T04:36:41.819Z,56.84
2022-09-17T04:37:42.275Z,58.37
2022-09-17T04:38:41.808Z,58.85
2022-09-17T04:39:41.795Z,59.82
2022-09-17T04:40:41.821Z,60.22
2022-09-17T04:41:41.801Z,60.02
2022-09-17T04:42:41.795Z,59.10
2022-09-17T04:43:41.771Z,58.51
2022-09-17T04:44:41.852Z,59.06
2022-09-17T04:45:41.756Z,59.45
2022-09-17T04:46:41.792Z,55.97
2022-09-17T04:47:41.746Z,58.42
2022-09-17T04:48:41.756Z,55.92
2022-09-17T04:49:41.740Z,57.63
2022-09-17T04:50:41.727Z,56.53
2022-09-17T04:51:41.719Z,57.19
2022-09-17T04:52:41.718Z,57.77
2022-09-17T04:53:41.723Z,56.58
2022-09-17T04:54:41.697Z,56.74
2022-09-17T04:55:41.690Z,58.99
2022-09-17T04:56:41.688Z,56.88
2022-09-17T04:57:41.675Z,56.17
2022-09-17T04:58:41.677Z,58.57
2022-09-17T04:59:41.679Z,59.03
2022-09-17T05:00:41.845Z,56.58
2022-09-17T05:01:41.694Z,55.25
2022-09-17T05:02:41.649Z,56.33
2022-09-17T05:03:41.635Z,58.65
2022-09-17T05:04:41.656Z,59.04
2022-09-17T05:05:41.631Z,57.33
2022-09-17T05:06:41.622Z,54.75
2022-09-17T05:07:41.614Z,54.05
2022-09-17T05:08:41.613Z,57.14
2022-09-17T05:09:41.601Z,57.31
2022-09-17T05:10:41.623Z,54.51
2022-09-17T05:11:41.615Z,57.42
2022-09-17T05:12:41.579Z,56.28
2022-09-17T05:13:41.555Z,55.19
2022-09-17T05:14:41.559Z,57.71
2022-09-17T05:15:41.636Z,58.21
2022-09-17T05:16:41.640Z,58.89
2022-09-17T05:17:41.544Z,55.67
2022-09-17T05:18:41.536Z,55.98
2022-09-17T05:19:41.523Z,55.88
2022-09-17T05:20:41.514Z,58.57
2022-09-17T05:21:41.527Z,57.57
2022-09-17T05:22:41.513Z,58.33
2022-09-17T05:23:41.500Z,60.30
2022-09-17T05:24:41.488Z,55.66
2022-09-17T05:25:41.487Z,56.64
2022-09-17T05:26:41.486Z,55.72
2022-09-17T05:27:41.519Z,58.54
2022-09-17T05:28:41.470Z,58.03
2022-09-17T05:29:41.459Z,54.71
2022-09-17T05:30:41.447Z,56.69
2022-09-17T05:31:41.479Z,58.34
2022-09-17T05:32:41.538Z,58.47
2022-09-17T05:33:41.439Z,59.57
2022-09-17T05:34:41.423Z,57.73
2022-09-17T05:35:41.423Z,59.01
2022-09-17T05:36:41.411Z,58.07
2022-09-17T05:37:41.422Z,56.50
2022-09-17T05:38:41.403Z,58.55
2022-09-17T05:39:41.382Z,58.16
2022-09-17T05:40:41.383Z,57.14
2022-09-17T05:41:41.367Z,57.36
2022-09-17T05:42:41.382Z,58.11
2022-09-17T05:43:41.360Z,57.42
2022-09-17T05:44:41.358Z,57.12
2022-09-17T05:45:41.334Z,59.28
2022-09-17T05:46:41.436Z,58.99
2022-09-17T05:47:41.334Z,57.87
2022-09-17T05:48:41.445Z,58.16
2022-09-17T05:49:41.336Z,61.45
2022-09-17T05:50:41.315Z,57.73
2022-09-17T05:51:41.321Z,58.28
2022-09-17T05:52:41.303Z,59.30
2022-09-17T05:53:41.310Z,59.06
2022-09-17T05:54:41.313Z,57.43
2022-09-17T05:55:41.278Z,56.90
2022-09-17T05:56:41.270Z,56.77
2022-09-17T05:57:41.270Z,57.97
2022-09-17T05:58:41.274Z,57.90
2022-09-17T05:59:41.242Z,57.91
2022-09-17T06:00:41.234Z,59.60
2022-09-17T06:01:41.255Z,57.25
2022-09-17T06:02:41.300Z,56.27
2022-09-17T06:03:41.226Z,57.23
2022-09-17T06:04:41.321Z,59.25
2022-09-17T06:05:41.218Z,58.53
2022-09-17T06:06:41.194Z,57.48
2022-09-17T06:07:41.199Z,58.55
2022-09-17T06:08:41.199Z,57.23
2022-09-17T06:09:41.240Z,56.12
2022-09-17T06:10:41.170Z,59.33
2022-09-17T06:11:42.175Z,58.10
2022-09-17T06:12:41.173Z,59.81
2022-09-17T06:13:41.175Z,58.09
2022-09-17T06:14:41.174Z,58.88
2022-09-17T06:15:41.147Z,59.99
2022-09-17T06:16:41.151Z,59.54
2022-09-17T06:17:41.127Z,59.49
2022-09-17T06:18:41.138Z,60.67
2022-09-17T06:19:41.143Z,58.30
2022-09-17T06:20:41.216Z,57.76
2022-09-17T06:21:41.113Z,58.00
2022-09-17T06:22:41.102Z,59.30
2022-09-17T06:23:41.094Z,57.67
2022-09-17T06:24:41.090Z,58.14
2022-09-17T06:25:41.099Z,59.89
2022-09-17T06:26:41.074Z,58.86
2022-09-17T06:27:41.074Z,58.34
2022-09-17T06:28:41.977Z,58.92
2022-09-17T06:29:42.070Z,59.94
2022-09-17T06:30:41.079Z,57.69
2022-09-17T06:31:41.099Z,59.95
2022-09-17T06:32:41.055Z,59.80
2022-09-17T06:33:41.029Z,58.86
2022-09-17T06:34:41.042Z,59.44
2022-09-17T06:35:41.071Z,58.43
2022-09-17T06:36:41.090Z,58.84
2022-09-17T06:37:41.011Z,60.33
2022-09-17T06:38:41.029Z,60.03
2022-09-17T06:39:41.002Z,57.74
2022-09-17T06:40:41.030Z,58.74
2022-09-17T06:41:40.978Z,59.61
2022-09-17T06:42:40.971Z,60.78
2022-09-17T06:43:40.966Z,58.61
2022-09-17T06:44:40.957Z,59.17
2022-09-17T06:45:40.972Z,59.78
2022-09-17T06:46:40.981Z,58.44
2022-09-17T06:47:40.946Z,58.60
2022-09-17T06:48:40.981Z,58.92
2022-09-17T06:49:40.931Z,60.77
2022-09-17T06:50:42.861Z,60.19
2022-09-17T06:51:41.922Z,58.69
2022-09-17T06:52:41.001Z,59.02
2022-09-17T06:53:40.904Z,59.53
2022-09-17T06:54:40.899Z,58.18
2022-09-17T06:55:40.912Z,59.20
2022-09-17T06:56:40.883Z,57.39
2022-09-17T06:57:40.880Z,60.05
2022-09-17T06:58:40.864Z,58.39
2022-09-17T06:59:40.865Z,56.73
2022-09-17T07:00:40.914Z,58.69
2022-09-17T07:01:40.886Z,57.27
2022-09-17T07:02:40.843Z,58.45
2022-09-17T07:03:40.835Z,60.31
2022-09-17T07:04:40.818Z,56.58
2022-09-17T07:05:40.826Z,57.54
2022-09-17T07:06:40.822Z,60.55
2022-09-17T07:07:40.804Z,59.17
2022-09-17T07:08:40.896Z,58.61
2022-09-17T07:09:40.794Z,58.67
2022-09-17T07:10:40.783Z,57.84
2022-09-17T07:11:40.794Z,60.17
2022-09-17T07:12:40.774Z,57.15
2022-09-17T07:13:40.770Z,59.90
2022-09-17T07:14:40.756Z,58.77
2022-09-17T07:15:40.820Z,58.64
2022-09-17T07:16:40.747Z,58.42
2022-09-17T07:17:40.742Z,57.46
2022-09-17T07:18:40.714Z,60.52
2022-09-17T07:19:40.712Z,60.42
2022-09-17T07:20:40.702Z,58.28
2022-09-17T07:21:40.695Z,58.45
2022-09-17T07:22:40.714Z,58.91
2022-09-17T07:23:40.690Z,58.54
2022-09-17T07:24:40.769Z,58.58
2022-09-17T07:25:40.669Z,59.30
2022-09-17T07:26:40.675Z,58.89
2022-09-17T07:27:40.667Z,60.58
2022-09-17T07:28:40.670Z,60.07
2022-09-17T07:29:40.631Z,56.83
2022-09-17T07:30:40.638Z,58.66
2022-09-17T07:31:40.694Z,58.59
2022-09-17T07:32:41.630Z,58.03
2022-09-17T07:33:40.614Z,57.00
2022-09-17T07:34:40.617Z,56.69
2022-09-17T07:35:40.602Z,57.74
2022-09-17T07:36:40.586Z,58.97
2022-09-17T07:37:40.573Z,58.13
2022-09-17T07:38:40.600Z,59.93
2022-09-17T07:39:40.574Z,58.16
2022-09-17T07:40:40.654Z,58.14
2022-09-17T07:41:40.556Z,58.27
2022-09-17T07:42:40.554Z,58.39
2022-09-17T07:43:40.558Z,58.02
2022-09-17T07:44:40.539Z,58.97
2022-09-17T07:45:40.529Z,60.41
2022-09-17T07:46:40.586Z,59.33
2022-09-17T07:47:40.519Z,57.70
2022-09-17T07:48:40.508Z,58.13
2022-09-17T07:49:40.496Z,58.94
2022-09-17T07:50:40.496Z,60.17
2022-09-17T07:51:40.784Z,58.75
2022-09-17T07:52:41.479Z,60.17
2022-09-17T07:53:40.516Z,57.96
2022-09-17T07:54:40.467Z,60.42
2022-09-17T07:55:40.465Z,57.55
2022-09-17T07:56:40.551Z,57.58
2022-09-17T07:57:40.454Z,56.87
2022-09-17T07:58:40.460Z,56.75
2022-09-17T07:59:40.464Z,56.83
2022-09-17T08:00:40.424Z,59.04
2022-09-17T08:01:40.505Z,56.28
2022-09-17T08:02:40.488Z,57.48
2022-09-17T08:03:40.404Z,56.99
2022-09-17T08:04:40.411Z,57.77
2022-09-17T08:05:40.393Z,58.48
2022-09-17T08:06:40.376Z,56.54
2022-09-17T08:07:40.379Z,55.55
2022-09-17T08:08:40.374Z,57.07
2022-09-17T08:09:40.368Z,58.34
2022-09-17T08:10:40.380Z,56.56
2022-09-17T08:11:56.808Z,56.56
2022-09-17T08:12:42.450Z,57.48
2022-09-17T08:13:40.340Z,58.55
2022-09-17T08:14:40.323Z,56.79
2022-09-17T08:15:40.335Z,56.60
2022-09-17T08:16:40.320Z,57.06
2022-09-17T08:17:40.306Z,57.31
2022-09-17T08:18:40.309Z,57.59
2022-09-17T08:19:40.300Z,57.29
2022-09-17T08:20:40.283Z,57.33
2022-09-17T08:21:40.284Z,58.18
2022-09-17T08:22:40.275Z,58.79
2022-09-17T08:23:40.268Z,59.79
2022-09-17T08:24:40.256Z,59.02
2022-09-17T08:25:40.267Z,57.74
2022-09-17T08:26:40.300Z,57.69
2022-09-17T08:27:40.239Z,58.22
2022-09-17T08:28:40.337Z,56.32
2022-09-17T08:29:40.220Z,58.15
2022-09-17T08:30:40.228Z,59.45
2022-09-17T08:31:40.308Z,57.45
2022-09-17T08:32:40.195Z,57.13
2022-09-17T08:33:40.187Z,56.88
2022-09-17T08:34:40.182Z,58.01
2022-09-17T08:35:40.178Z,56.50
2022-09-17T08:36:40.189Z,57.66
2022-09-17T08:37:40.170Z,58.00
2022-09-17T08:38:40.157Z,57.44
2022-09-17T08:39:40.138Z,55.05
2022-09-17T08:40:40.246Z,57.09
2022-09-17T08:41:40.181Z,56.85
2022-09-17T08:42:40.130Z,57.34
2022-09-17T08:43:40.126Z,57.00
2022-09-17T08:44:40.211Z,58.47
2022-09-17T08:45:40.115Z,58.44
2022-09-17T08:46:40.181Z,57.63
2022-09-17T08:47:40.107Z,56.69
2022-09-17T08:48:40.098Z,57.33
2022-09-17T08:49:40.089Z,58.83
2022-09-17T08:50:40.083Z,58.95
2022-09-17T08:51:40.070Z,57.22
2022-09-17T08:52:40.078Z,57.93
2022-09-17T08:53:40.055Z,56.86
2022-09-17T08:54:40.048Z,56.63
2022-09-17T08:55:40.046Z,58.01
2022-09-17T08:56:40.043Z,57.95
2022-09-17T08:57:40.066Z,58.28
2022-09-17T08:58:40.018Z,57.80
2022-09-17T08:59:40.029Z,56.61
2022-09-17T09:00:40.102Z,56.73
2022-09-17T09:01:40.123Z,57.32
2022-09-17T09:02:40.110Z,56.81
2022-09-17T09:03:40.004Z,56.99
2022-09-17T09:04:39.983Z,56.44
2022-09-17T09:05:39.981Z,57.06
2022-09-17T09:06:39.974Z,56.58
2022-09-17T09:07:39.976Z,58.24
2022-09-17T09:08:39.974Z,56.91
2022-09-17T09:09:39.953Z,57.44
2022-09-17T09:10:39.931Z,57.31
2022-09-17T09:11:39.935Z,57.08
2022-09-17T09:12:39.922Z,58.81
2022-09-17T09:13:39.915Z,57.63
2022-09-17T09:14:39.924Z,58.08
2022-09-17T09:15:39.906Z,59.80
2022-09-17T09:16:39.990Z,58.43
2022-09-17T09:17:39.886Z,57.84
2022-09-17T09:18:39.886Z,57.18
2022-09-17T09:19:39.885Z,58.27
2022-09-17T09:20:39.870Z,56.95
2022-09-17T09:21:39.866Z,59.31
2022-09-17T09:22:39.874Z,59.00
2022-09-17T09:23:39.843Z,56.95
2022-09-17T09:24:39.862Z,58.47
2022-09-17T09:25:39.842Z,59.65
2022-09-17T09:26:39.831Z,57.25
2022-09-17T09:27:39.819Z,57.78
2022-09-17T09:28:39.806Z,57.11
2022-09-17T09:29:39.830Z,58.53
2022-09-17T09:30:39.818Z,58.94
2022-09-17T09:31:39.869Z,58.49
2022-09-17T09:32:39.888Z,58.73
2022-09-17T09:33:42.390Z,58.81
2022-09-17T09:34:39.778Z,59.07
2022-09-17T09:35:39.805Z,56.79
2022-09-17T09:36:39.759Z,56.00
2022-09-17T09:37:39.758Z,56.09
2022-09-17T09:38:39.747Z,56.69
2022-09-17T09:39:45.171Z,57.66
2022-09-17T09:40:41.742Z,57.09
2022-09-17T09:41:39.719Z,55.76
2022-09-17T09:42:39.728Z,54.90
2022-09-17T09:43:59.897Z,55.39
2022-09-17T09:44:41.702Z,57.89
2022-09-17T09:45:39.701Z,58.34
2022-09-17T09:46:39.778Z,56.92
2022-09-17T09:47:39.678Z,57.07
2022-09-17T09:48:39.779Z,56.58
2022-09-17T09:49:39.676Z,57.73
2022-09-17T09:51:02.275Z,57.38
2022-09-17T09:51:41.667Z,58.77
2022-09-17T09:52:39.651Z,59.08
2022-09-17T09:53:39.642Z,59.07
2022-09-17T09:54:39.627Z,57.79
2022-09-17T09:55:39.626Z,58.43
2022-09-17T09:56:39.635Z,56.55
2022-09-17T09:57:39.610Z,56.81
2022-09-17T09:58:39.606Z,56.29
2022-09-17T09:59:39.597Z,56.44
2022-09-17T10:00:39.597Z,57.61
2022-09-17T10:01:39.730Z,58.43
2022-09-17T10:02:39.690Z,56.73
2022-09-17T10:03:39.574Z,57.76
2022-09-17T10:04:39.672Z,58.97
2022-09-17T10:05:39.562Z,58.21
2022-09-17T10:06:39.570Z,58.82
2022-09-17T10:07:39.554Z,56.92
2022-09-17T10:08:39.545Z,58.46
2022-09-17T10:09:39.541Z,58.00
2022-09-17T10:10:39.534Z,57.81
2022-09-17T10:11:39.551Z,56.93
2022-09-17T10:12:39.530Z,56.90
2022-09-17T10:13:39.506Z,55.98
2022-09-17T10:14:39.494Z,57.89
2022-09-17T10:15:39.489Z,59.15
2022-09-17T10:16:39.540Z,58.73
2022-09-17T10:17:39.486Z,55.73
2022-09-17T10:18:39.474Z,57.23
2022-09-17T10:19:39.462Z,55.35
2022-09-17T10:20:39.549Z,57.89
2022-09-17T10:21:39.439Z,59.55
2022-09-17T10:22:39.454Z,57.90
2022-09-17T10:23:39.430Z,58.49
2022-09-17T10:24:39.422Z,58.36
2022-09-17T10:25:39.418Z,58.22
2022-09-17T10:26:39.423Z,60.12
2022-09-17T10:27:39.398Z,59.75
2022-09-17T10:28:39.393Z,59.53
2022-09-17T10:29:41.647Z,58.31
2022-09-17T10:30:39.377Z,58.22
2022-09-17T10:31:39.430Z,58.20
2022-09-17T10:32:39.375Z,57.14
2022-09-17T10:33:39.357Z,55.67
2022-09-17T10:34:39.373Z,57.72
2022-09-17T10:35:39.345Z,58.89
2022-09-17T10:36:39.441Z,55.94
2022-09-17T10:37:39.364Z,57.16
2022-09-17T10:38:39.328Z,57.39
2022-09-17T10:39:39.334Z,55.91
2022-09-17T10:40:39.392Z,54.84
2022-09-17T10:41:39.317Z,55.92
2022-09-17T10:42:39.306Z,56.85
2022-09-17T10:43:39.309Z,55.47
2022-09-17T10:44:39.298Z,57.53
2022-09-17T10:45:39.281Z,55.71
2022-09-17T10:46:39.291Z,54.71
2022-09-17T10:47:39.278Z,55.03
2022-09-17T10:48:39.272Z,55.30
2022-09-17T10:49:39.284Z,55.23
2022-09-17T10:50:39.259Z,54.35
2022-09-17T10:51:39.252Z,56.33
2022-09-17T10:52:39.347Z,54.64
2022-09-17T10:53:39.242Z,55.60
2022-09-17T10:54:39.253Z,55.21
2022-09-17T10:55:39.248Z,57.31
2022-09-17T10:56:39.217Z,57.54
2022-09-17T10:57:39.212Z,58.56
2022-09-17T10:58:42.281Z,58.15
2022-09-17T10:59:40.352Z,59.22
2022-09-17T11:00:39.193Z,58.27
2022-09-17T11:01:39.323Z,57.63
2022-09-17T11:02:39.337Z,57.74
2022-09-17T11:03:39.176Z,57.46
2022-09-17T11:04:39.177Z,56.34
2022-09-17T11:08:59.860Z,58.71
2022-09-17T11:09:59.844Z,58.94
2022-09-17T11:10:59.864Z,58.97
2022-09-17T11:11:59.840Z,59.09
2022-09-17T11:12:59.829Z,58.05
2022-09-17T11:13:59.822Z,59.62
2022-09-17T11:14:59.822Z,59.01
2022-09-17T11:15:59.857Z,59.24
2022-09-17T11:16:59.809Z,59.03
2022-09-17T11:17:59.818Z,61.11
2022-09-17T11:18:59.788Z,62.18
2022-09-17T11:19:59.785Z,60.95
2022-09-17T11:20:59.788Z,58.88
2022-09-17T11:21:59.772Z,59.37
2022-09-17T11:22:59.780Z,60.06
2022-09-17T11:23:59.858Z,58.27
2022-09-17T11:24:59.748Z,57.60
2022-09-17T11:26:00.962Z,59.08
2022-09-17T11:27:00.756Z,56.85
2022-09-17T11:27:59.739Z,57.68
2022-09-17T11:28:59.816Z,57.34
2022-09-17T11:29:59.722Z,57.14
2022-09-17T11:30:59.736Z,57.82
2022-09-17T11:31:59.739Z,55.83
2022-09-17T11:32:59.714Z,57.68
2022-09-17T11:33:59.698Z,58.15
2022-09-17T11:34:59.693Z,58.81
2022-09-17T11:35:59.681Z,58.86
2022-09-17T11:36:59.678Z,58.17
2022-09-17T11:38:00.198Z,56.88
2022-09-17T11:39:00.669Z,57.65
2022-09-17T11:39:59.802Z,56.98
2022-09-17T11:40:59.649Z,56.24
2022-09-17T11:41:59.655Z,57.02
2022-09-17T11:42:59.661Z,57.43
2022-09-17T11:43:59.662Z,54.97
2022-09-17T11:44:59.637Z,54.62
2022-09-17T11:45:59.620Z,56.25
2022-09-17T11:46:59.658Z,58.01
2022-09-17T11:47:59.613Z,56.76
2022-09-17T11:48:59.600Z,57.07
2022-09-17T11:49:59.616Z,56.80
2022-09-17T11:50:59.591Z,56.76
2022-09-17T11:51:59.591Z,58.63
2022-09-17T11:53:00.120Z,57.16
2022-09-17T11:53:59.571Z,55.36
2022-09-17T11:54:59.580Z,57.33
2022-09-17T11:55:59.657Z,55.60
2022-09-17T11:56:59.553Z,56.84
2022-09-17T11:57:59.548Z,56.51
2022-09-17T11:58:59.688Z,56.24
2022-09-17T11:59:59.552Z,58.33
2022-09-17T12:01:00.122Z,56.97
2022-09-17T12:01:59.595Z,57.42
2022-09-17T12:02:59.611Z,56.61
2022-09-17T12:03:59.520Z,59.96
2022-09-17T12:04:59.508Z,59.79
2022-09-17T12:05:59.516Z,59.17
2022-09-17T12:06:59.495Z,59.86
2022-09-17T12:07:59.490Z,58.95
2022-09-17T12:08:59.497Z,58.99
2022-09-17T12:09:59.476Z,61.30
2022-09-17T12:10:59.484Z,58.98
2022-09-17T12:11:59.560Z,61.07
2022-09-17T12:12:59.451Z,60.71
2022-09-17T12:13:59.582Z,61.85
2022-09-17T12:14:59.447Z,57.14
2022-09-17T12:15:59.507Z,57.87
2022-09-17T12:16:59.436Z,56.92
2022-09-17T12:18:20.678Z,58.09
2022-09-17T12:19:01.415Z,58.08
2022-09-17T12:19:59.406Z,57.01
2022-09-17T12:20:59.412Z,55.98
2022-09-17T12:21:59.395Z,55.96
2022-09-17T12:23:00.147Z,55.57
2022-09-17T12:23:59.383Z,56.75
2022-09-17T12:24:59.383Z,55.28
2022-09-17T12:25:59.370Z,56.15
2022-09-17T12:26:59.380Z,54.80
2022-09-17T12:27:59.450Z,55.78
2022-09-17T12:28:59.420Z,56.37
2022-09-17T12:30:00.627Z,55.41
2022-09-17T12:31:00.395Z,56.47
2022-09-17T12:31:59.367Z,57.36
2022-09-17T12:32:59.323Z,55.98
2022-09-17T12:33:59.318Z,56.42
2022-09-17T12:34:59.315Z,55.85
2022-09-17T12:36:04.404Z,57.15
2022-09-17T12:37:01.331Z,57.14
2022-09-17T12:37:59.302Z,56.70
2022-09-17T12:39:02.896Z,57.02
2022-09-17T12:40:00.395Z,56.98
2022-09-17T12:40:59.325Z,57.46
2022-09-17T12:41:59.270Z,56.70
2022-09-17T12:42:59.278Z,59.15
2022-09-17T12:43:59.506Z,59.67
2022-09-17T12:44:59.258Z,57.63
2022-09-17T12:45:59.246Z,60.66
2022-09-17T12:46:59.295Z,59.95
2022-09-17T12:47:59.250Z,59.14
2022-09-17T12:48:59.226Z,58.98
2022-09-17T12:49:59.226Z,59.00
2022-09-17T12:50:59.219Z,57.92
2022-09-17T12:51:59.215Z,59.46
2022-09-17T12:52:59.212Z,59.61
2022-09-17T12:53:59.211Z,58.21
2022-09-17T12:54:59.183Z,58.57
2022-09-17T12:55:59.178Z,58.27